Time;durP1;ratioP1;P1;durP2;ratioP2;P2;SDS_P1;SDS_P2;PMS_P1;PMS_P2;Temp;Humidity;BMP_temperature;BMP_pressure;BME280_temperature;BME280_humidity;BME280_pressure;Samples;Min_cycle;Max_cycle;Signal;HPM_P1;HPM_P2
2021/10/18 00:08:29;;;;;;;3.38;2.25;;;18.00;71.10;;;;;;20808671;28;80837;-69
2021/10/18 00:18:30;;;;;;;5.37;3.33;;;17.90;71.70;;;;;;20808064;28;80803;-69
2021/10/18 00:28:33;;;;;;;5.77;3.47;;;17.80;72.10;;;;;;20807551;28;80082;-69
2021/10/18 00:38:35;;;;;;;4.30;3.13;;;17.60;72.50;;;;;;20807493;28;80806;-67
2021/10/18 00:48:46;;;;;;;5.18;3.75;;;17.50;72.80;;;;;;20805679;28;80736;-68
2021/10/18 00:58:50;;;;;;;6.43;4.30;;;17.40;73.10;;;;;;20804448;28;79927;-67
2021/10/18 01:08:52;;;;;;;6.78;4.43;;;17.30;73.30;;;;;;20803089;28;80808;-66
2021/10/18 01:18:54;;;;;;;9.20;5.20;;;17.20;73.50;;;;;;20803857;28;80107;-67
2021/10/18 01:28:58;;;;;;;8.77;5.22;;;17.00;73.50;;;;;;20802708;28;81878;-67
2021/10/18 01:39:02;;;;;;;6.05;4.40;;;16.90;73.30;;;;;;20802593;28;82219;-66
2021/10/18 01:49:06;;;;;;;5.95;4.63;;;16.70;73.50;;;;;;20802164;28;80144;-66
2021/10/18 01:59:11;;;;;;;8.77;5.20;;;16.70;73.80;;;;;;20799086;28;81120;-69
2021/10/18 02:09:14;;;;;;;8.50;5.53;;;16.50;73.80;;;;;;20801107;28;80688;-68
2021/10/18 02:19:17;;;;;;;9.85;6.10;;;16.40;73.80;;;;;;20799462;28;80739;-68
2021/10/18 02:29:21;;;;;;;8.40;5.90;;;16.30;73.70;;;;;;20800310;28;81830;-68
2021/10/18 02:39:25;;;;;;;11.23;6.38;;;16.00;73.90;;;;;;20798517;28;81559;-67
2021/10/18 02:49:29;;;;;;;8.60;5.75;;;15.90;74.10;;;;;;20799180;28;80693;-69
2021/10/18 02:59:51;;;;;;;9.85;6.90;;;15.90;74.30;;;;;;20798348;28;80322;-69
2021/10/18 03:10:12;;;;;;;8.85;6.55;;;15.80;74.30;;;;;;20801026;28;81614;-66
2021/10/18 03:20:33;;;;;;;12.55;6.47;;;15.60;74.50;;;;;;20812873;28;82790;-67
2021/10/18 03:30:43;;;;;;;10.50;6.43;;;15.40;74.70;;;;;;20810965;28;80973;-67
2021/10/18 03:40:53;;;;;;;9.45;7.03;;;15.30;75.00;;;;;;20810521;28;81851;-69
2021/10/18 03:51:03;;;;;;;11.68;6.65;;;15.20;76.10;;;;;;20810540;28;81489;-70
2021/10/18 04:01:10;;;;;;;10.45;6.32;;;15.10;76.60;;;;;;20808436;28;81686;-68
2021/10/18 04:11:18;;;;;;;10.57;6.35;;;15.10;76.60;;;;;;20809409;28;81656;-69
2021/10/18 04:21:26;;;;;;;10.07;5.78;;;15.00;76.50;;;;;;20808163;28;81713;-68
2021/10/18 04:31:34;;;;;;;10.23;6.10;;;14.90;76.80;;;;;;20807872;28;81085;-67
2021/10/18 04:41:39;;;;;;;8.52;6.28;;;14.80;77.00;;;;;;20807693;28;80600;-68
2021/10/18 04:51:45;;;;;;;9.07;5.70;;;14.60;77.00;;;;;;20805302;28;79864;-66
2021/10/18 05:01:49;;;;;;;9.93;6.75;;;14.50;76.90;;;;;;20805379;28;80329;-68
2021/10/18 05:11:51;;;;;;;8.17;6.10;;;14.40;76.90;;;;;;20802847;28;81637;-68
2021/10/18 05:21:54;;;;;;;9.60;6.05;;;14.30;77.00;;;;;;20825107;28;81802;-69
2021/10/18 05:31:56;;;;;;;9.65;6.03;;;14.20;76.80;;;;;;20861993;27;82020;-69
2021/10/18 05:41:58;;;;;;;11.10;7.00;;;14.10;77.10;;;;;;20862385;28;81642;-70
2021/10/18 05:52:02;;;;;;;;;;;14.20;76.90;;;;;;20873163;27;81093;-69
2021/10/18 06:02:06;;;;;;;10.98;6.57;;;14.10;76.90;;;;;;20889958;27;79398;-69
2021/10/18 06:12:08;;;;;;;9.23;6.60;;;14.10;77.10;;;;;;20872962;27;81814;-66
2021/10/18 06:22:09;;;;;;;15.27;7.30;;;14.10;77.00;;;;;;20874561;27;80727;-70
2021/10/18 06:32:13;;;;;;;12.90;7.00;;;14.10;77.00;;;;;;20871084;27;81288;-65
2021/10/18 06:42:16;;;;;;;11.73;6.70;;;14.20;76.70;;;;;;20872033;27;81147;-63
2021/10/18 06:52:21;;;;;;;15.10;7.60;;;14.40;76.20;;;;;;20884815;27;81198;-66
2021/10/18 07:02:25;;;;;;;12.63;7.70;;;14.70;75.40;;;;;;20884431;27;82352;-67
2021/10/18 07:12:32;;;;;;;12.15;6.97;;;15.10;74.40;;;;;;20876156;27;80842;-66
2021/10/18 07:22:43;;;;;;;22.88;8.55;;;15.20;73.70;;;;;;20877986;28;81979;-67
2021/10/18 07:32:45;;;;;;;18.83;7.57;;;15.30;73.70;;;;;;20885473;28;82336;-67
2021/10/18 07:42:47;;;;;;;19.83;7.10;;;15.40;73.50;;;;;;20883993;28;82519;-67
2021/10/18 07:52:50;;;;;;;16.95;9.80;;;15.60;73.10;;;;;;20883242;28;81849;-66
2021/10/18 08:02:52;;;;;;;16.80;8.80;;;16.00;72.10;;;;;;20881826;27;81911;-66
2021/10/18 08:13:00;;;;;;;17.02;9.15;;;16.70;70.10;;;;;;20880338;28;82045;-66
2021/10/18 08:23:03;;;;;;;17.23;9.68;;;17.60;66.80;;;;;;20875976;27;81272;-67
2021/10/18 08:33:06;;;;;;;14.93;8.43;;;18.20;65.00;;;;;;20879482;27;81736;-67
2021/10/18 08:53:15;;;;;;;13.07;8.02;;;18.20;64.90;;;;;;20878068;27;82178;-66
2021/10/18 09:03:26;;;;;;;14.23;8.95;;;18.30;64.90;;;;;;20876864;27;80980;-66
2021/10/18 09:13:29;;;;;;;14.82;6.78;;;19.10;63.30;;;;;;20874050;27;82463;-66
2021/10/18 09:23:36;;;;;;;10.37;6.03;;;19.80;60.80;;;;;;20872541;27;81952;-67
2021/10/18 09:33:40;;;;;;;9.25;5.88;;;20.20;59.40;;;;;;20875674;27;81276;-67
2021/10/18 09:43:59;;;;;;;8.38;5.85;;;20.70;58.20;;;;;;20873145;27;81273;-67
2021/10/18 10:56:23;;;;;;;8.13;4.78;;;35.00;29.00;;;;;;20865451;28;81696;-64
2021/10/18 11:06:46;;;;;;;11.18;5.70;;;39.00;24.50;;;;;;20868638;27;81787;-63
2021/10/18 11:16:49;;;;;;;17.35;7.40;;;34.60;28.80;;;;;;20867226;28;81654;-64
2021/10/18 11:26:56;;;;;;;12.27;8.30;;;38.00;25.20;;;;;;20869035;27;81488;-63
2021/10/18 11:36:58;;;;;;;10.07;6.32;;;38.60;24.80;;;;;;20869451;27;82395;-63
2021/10/18 11:47:00;;;;;;;17.02;7.47;;;35.00;29.30;;;;;;20882633;27;81303;-62
2021/10/18 11:57:03;;;;;;;14.23;5.93;;;38.20;25.50;;;;;;20877801;28;81934;-63
2021/10/18 12:07:04;;;;;;;10.63;5.07;;;39.50;24.10;;;;;;20880940;28;81365;-63
2021/10/18 12:17:06;;;;;;;10.55;5.45;;;36.90;26.70;;;;;;20880345;27;81768;-64
2021/10/18 12:27:13;;;;;;;6.63;4.03;;;35.50;28.60;;;;;;20879330;28;81927;-63
2021/10/18 12:37:15;;;;;;;8.52;4.10;;;33.20;31.60;;;;;;20876817;27;81253;-64
2021/10/18 12:47:23;;;;;;;10.05;4.15;;;34.00;30.60;;;;;;20876695;27;81857;-68
2021/10/18 12:57:31;;;;;;;6.93;4.20;;;33.20;31.20;;;;;;20821707;27;80736;-67
2021/10/18 13:07:33;;;;;;;4.93;3.10;;;34.30;29.40;;;;;;20815381;28;79886;-65
2021/10/18 13:17:36;;;;;;;7.65;3.50;;;33.90;29.80;;;;;;20803148;28;81980;-66
2021/10/18 13:27:40;;;;;;;6.75;3.25;;;32.80;30.90;;;;;;20800696;28;80700;-65
2021/10/18 13:37:49;;;;;;;4.73;2.93;;;32.20;31.80;;;;;;20795530;28;80951;-67
2021/10/18 13:47:53;;;;;;;6.38;2.70;;;32.90;30.60;;;;;;20801945;28;81756;-65
2021/10/18 13:57:57;;;;;;;8.30;2.70;;;36.60;26.30;;;;;;20802373;28;80088;-65
2021/10/18 14:07:59;;;;;;;5.72;2.90;;;37.90;24.80;;;;;;20801481;28;80985;-66
2021/10/18 14:18:03;;;;;;;7.70;2.65;;;40.10;22.70;;;;;;20800423;28;79856;-66
2021/10/18 14:28:05;;;;;;;4.72;2.25;;;35.60;26.70;;;;;;20801375;28;81029;-66
2021/10/18 14:38:07;;;;;;;4.03;2.10;;;32.40;30.60;;;;;;20801283;28;82079;-65
2021/10/18 14:48:10;;;;;;;8.57;2.03;;;31.10;31.90;;;;;;20798641;28;81950;-64
2021/10/18 14:58:15;;;;;;;3.90;1.77;;;32.50;29.60;;;;;;20799227;28;80609;-66
2021/10/18 15:08:17;;;;;;;8.57;2.92;;;35.20;26.80;;;;;;20804095;28;82185;-66
2021/10/18 15:18:19;;;;;;;6.53;2.97;;;33.40;29.20;;;;;;20812160;28;80778;-66
2021/10/18 15:28:24;;;;;;;5.43;2.50;;;31.40;31.40;;;;;;20812694;28;80104;-67
2021/10/18 15:38:26;;;;;;;5.47;2.50;;;30.80;35.00;;;;;;20871359;28;80589;-66
2021/10/18 15:48:28;;;;;;;6.93;2.45;;;28.70;36.40;;;;;;20882378;27;80832;-66
2021/10/18 15:58:30;;;;;;;5.80;3.08;;;27.50;38.30;;;;;;20894787;27;80622;-65
2021/10/18 16:08:33;;;;;;;5.22;2.47;;;26.40;41.30;;;;;;20891087;27;81886;-67
2021/10/18 16:18:35;;;;;;;6.40;2.78;;;25.80;42.30;;;;;;20886368;27;80108;-71
2021/10/18 16:28:37;;;;;;;9.13;3.80;;;25.60;41.60;;;;;;20892038;28;80758;-66
2021/10/18 16:38:39;;;;;;;6.72;3.25;;;25.50;42.90;;;;;;20892576;27;82118;-68
2021/10/18 16:48:41;;;;;;;11.05;3.65;;;25.10;44.00;;;;;;20889060;27;81591;-69
2021/10/18 16:58:43;;;;;;;7.32;3.33;;;24.80;45.70;;;;;;20887877;28;82161;-69
2021/10/18 17:08:44;;;;;;;5.95;3.17;;;24.40;46.20;;;;;;20888626;27;80755;-68
2021/10/18 17:18:46;;;;;;;8.82;3.35;;;23.90;48.40;;;;;;20883598;28;81726;-68
2021/10/18 17:28:48;;;;;;;7.28;3.30;;;23.40;49.60;;;;;;20884310;28;80715;-68
2021/10/18 17:38:50;;;;;;;9.10;5.53;;;23.10;50.20;;;;;;20886315;27;81877;-70
2021/10/18 17:48:52;;;;;;;10.05;3.00;;;22.80;50.40;;;;;;20884584;28;82049;-71
2021/10/18 17:58:54;;;;;;;6.85;2.92;;;22.50;49.50;;;;;;20885227;27;79903;-64
2021/10/18 18:08:56;;;;;;;7.78;3.35;;;22.30;49.80;;;;;;20856492;28;81858;-71
2021/10/18 18:18:59;;;;;;;12.10;4.25;;;22.10;50.90;;;;;;20825242;28;82284;-68
2021/10/18 18:29:01;;;;;;;9.23;5.10;;;21.90;51.40;;;;;;20799482;28;80726;-68
2021/10/18 18:39:04;;;;;;;17.73;9.23;;;21.70;53.10;;;;;;20801088;27;80029;-68
2021/10/18 18:49:05;;;;;;;;;;;21.50;53.20;;;;;;20820820;28;80551;-68
2021/10/18 18:59:08;;;;;;;14.43;6.90;;;21.30;53.10;;;;;;20903063;28;81926;-70
2021/10/18 19:09:09;;;;;;;;;;;21.20;53.50;;;;;;20888840;28;79931;-69
2021/10/18 19:19:11;;;;;;;12.50;6.50;;;21.00;53.70;;;;;;20908190;28;81866;-68
2021/10/18 19:29:13;;;;;;;18.00;8.45;;;20.90;54.70;;;;;;20889852;28;80308;-70
2021/10/18 19:39:16;;;;;;;22.30;8.05;;;20.80;55.60;;;;;;20893944;27;80039;-69
2021/10/18 19:49:18;;;;;;;16.88;7.30;;;20.60;56.50;;;;;;20877616;27;81316;-70
2021/10/18 19:59:21;;;;;;;16.55;6.60;;;20.60;56.90;;;;;;20806461;28;81769;-69
2021/10/18 20:09:22;;;;;;;14.17;7.60;;;20.50;57.40;;;;;;20854858;28;81655;-70
2021/10/18 20:19:28;;;;;;;13.52;5.10;;;20.50;58.00;;;;;;20847240;28;80181;-71
2021/10/18 20:29:30;;;;;;;10.60;5.32;;;20.30;58.30;;;;;;20809659;28;80158;-68
2021/10/18 20:39:36;;;;;;;11.52;4.72;;;20.20;59.00;;;;;;20872909;28;80736;-69
2021/10/18 20:49:38;;;;;;;9.13;4.47;;;20.00;59.70;;;;;;20836463;27;81504;-70
2021/10/18 20:59:41;;;;;;;6.78;4.47;;;19.90;60.30;;;;;;20886568;27;80692;-70
2021/10/18 21:09:43;;;;;;;6.80;3.92;;;19.80;61.00;;;;;;20886474;27;81810;-69
2021/10/18 21:19:46;;;;;;;11.40;4.40;;;19.70;61.20;;;;;;20861433;28;81862;-70
2021/10/18 21:29:47;;;;;;;;;;;19.60;61.60;;;;;;20803815;28;81827;-68
2021/10/18 21:39:49;;;;;;;8.15;4.68;;;19.40;61.80;;;;;;20825000;27;79310;-69
2021/10/18 21:49:51;;;;;;;9.30;4.80;;;19.30;62.50;;;;;;20814528;28;80591;-68
2021/10/18 21:59:54;;;;;;;9.95;4.25;;;19.30;62.90;;;;;;20801695;28;80758;-69
2021/10/18 22:09:55;;;;;;;6.43;3.17;;;19.10;63.50;;;;;;20801510;28;80709;-68
2021/10/18 22:19:57;;;;;;;;;;;18.90;63.70;;;;;;20799797;28;80993;-68
2021/10/18 22:30:00;;;;;;;6.70;3.67;;;18.70;63.80;;;;;;20820209;28;80686;-68
2021/10/18 22:40:04;;;;;;;8.75;4.43;;;18.60;64.30;;;;;;20798196;28;80009;-70
2021/10/18 22:50:07;;;;;;;8.02;4.07;;;18.60;64.50;;;;;;20796707;28;81672;-69
2021/10/18 23:00:09;;;;;;;7.30;3.05;;;18.50;64.90;;;;;;20796372;28;81850;-68
2021/10/18 23:10:11;;;;;;;;;;;18.30;65.20;;;;;;20795176;28;81951;-68
2021/10/18 23:20:12;;;;;;;7.05;3.88;;;18.30;65.30;;;;;;20817573;28;80809;-68
2021/10/18 23:30:14;;;;;;;7.00;3.50;;;18.20;65.70;;;;;;20802275;28;80007;-69
2021/10/18 23:40:16;;;;;;;6.43;3.63;;;18.00;66.00;;;;;;20808573;28;80716;-69
2021/10/18 23:50:18;;;;;;;6.68;4.20;;;17.90;66.40;;;;;;20807710;28;80933;-70
